createdAt,value
2018-10-17T00:02:27.669Z,21.25
2018-10-17T00:04:56.879Z,22.25
2018-10-17T00:07:25.932Z,21.55
2018-10-17T00:09:54.471Z,22.02
2018-10-17T00:12:23.334Z,22.02
2018-10-17T00:14:51.872Z,20.90
2018-10-17T00:17:20.733Z,21.80
2018-10-17T00:19:49.590Z,21.75
2018-10-17T00:22:18.758Z,21.33
2018-10-17T00:24:47.279Z,21.20
2018-10-17T00:27:16.120Z,20.43
2018-10-17T00:29:44.670Z,22.25
2018-10-17T00:32:13.521Z,19.20
2018-10-17T00:34:42.386Z,20.95
2018-10-17T00:37:11.622Z,21.07
2018-10-17T00:39:40.605Z,19.32
2018-10-17T00:42:09.448Z,19.75
2018-10-17T00:44:37.939Z,20.45
2018-10-17T00:47:06.818Z,20.77
2018-10-17T00:49:35.508Z,19.40
2018-10-17T00:52:04.340Z,21.00
2018-10-17T00:54:33.169Z,21.50
2018-10-17T00:57:01.674Z,20.20
2018-10-17T00:59:30.220Z,19.60
2018-10-17T01:01:59.074Z,19.35
2018-10-17T01:04:27.601Z,19.27
2018-10-17T01:06:56.153Z,19.55
2018-10-17T01:09:24.807Z,21.27
2018-10-17T01:11:54.022Z,20.32
2018-10-17T01:14:22.521Z,20.60
2018-10-17T01:16:51.404Z,20.72
2018-10-17T01:19:20.083Z,19.87
2018-10-17T01:21:48.911Z,20.80
2018-10-17T01:24:18.068Z,22.15
2018-10-17T01:26:47.252Z,23.47
2018-10-17T01:29:15.879Z,21.77
2018-10-17T01:31:44.509Z,21.93
2018-10-17T01:34:13.023Z,22.05
2018-10-17T01:36:41.526Z,23.70
2018-10-17T01:39:11.339Z,21.52
2018-10-17T01:41:39.899Z,21.93
2018-10-17T01:44:09.229Z,22.87
2018-10-17T01:46:38.392Z,22.52
2018-10-17T01:49:07.333Z,22.25
2018-10-17T01:51:35.975Z,22.32
2018-10-17T01:54:04.464Z,22.35
2018-10-17T01:56:33.296Z,21.70
2018-10-17T01:59:02.559Z,23.18
2018-10-17T02:01:31.509Z,21.42
2018-10-17T02:04:00.368Z,22.22
2018-10-17T02:06:28.883Z,23.05
2018-10-17T02:08:57.744Z,24.25
2018-10-17T02:11:26.244Z,21.48
2018-10-17T02:13:55.120Z,22.13
2018-10-17T02:16:24.152Z,22.60
2018-10-17T02:18:53.011Z,21.50
2018-10-17T02:21:21.510Z,21.95
2018-10-17T02:23:50.017Z,23.52
2018-10-17T02:26:18.540Z,22.20
2018-10-17T02:28:47.053Z,24.57
2018-10-17T02:31:15.576Z,23.40
2018-10-17T02:33:44.257Z,23.40
2018-10-17T02:36:12.774Z,25.27
2018-10-17T02:38:41.615Z,22.90
2018-10-17T02:41:10.523Z,22.48
2018-10-17T02:43:39.156Z,24.15
2018-10-17T02:46:07.996Z,23.18
2018-10-17T02:48:36.528Z,21.90
2018-10-17T02:51:05.040Z,23.50
2018-10-17T02:53:33.549Z,25.62
2018-10-17T02:56:02.393Z,23.10
2018-10-17T02:58:30.938Z,23.05
2018-10-17T03:01:00.159Z,24.02
2018-10-17T03:03:28.823Z,21.35
2018-10-17T03:05:57.709Z,24.20
2018-10-17T03:08:26.221Z,25.10
2018-10-17T03:10:54.785Z,23.47
2018-10-17T03:13:23.528Z,23.15
2018-10-17T03:15:52.029Z,22.40
2018-10-17T03:18:20.884Z,22.70
2018-10-17T03:20:49.435Z,22.45
2018-10-17T03:23:18.479Z,23.15
2018-10-17T03:25:48.085Z,23.25
2018-10-17T03:28:16.608Z,23.10
2018-10-17T03:30:45.280Z,25.60
2018-10-17T03:33:13.780Z,24.20
2018-10-17T03:35:42.962Z,22.82
2018-10-17T03:38:11.668Z,24.43
2018-10-17T03:40:40.510Z,23.10
2018-10-17T03:43:09.081Z,22.70
2018-10-17T03:45:38.073Z,23.45
2018-10-17T03:48:06.589Z,26.10
2018-10-17T03:50:35.127Z,25.55
2018-10-17T03:53:03.823Z,26.95
2018-10-17T03:55:32.446Z,24.30
2018-10-17T03:58:01.621Z,24.75
2018-10-17T04:00:30.492Z,24.47
2018-10-17T04:02:59.688Z,23.90
2018-10-17T04:05:48.217Z,23.83
2018-10-17T04:08:16.716Z,21.42
2018-10-17T04:10:45.195Z,23.45
2018-10-17T04:13:13.788Z,24.00
2018-10-17T04:15:42.431Z,23.38
2018-10-17T04:18:11.265Z,22.87
2018-10-17T04:20:40.551Z,23.98
2018-10-17T04:23:09.953Z,23.25
2018-10-17T04:25:38.942Z,21.82
2018-10-17T04:28:07.983Z,23.55
2018-10-17T04:30:36.839Z,23.67
2018-10-17T04:33:05.852Z,24.98
2018-10-17T04:35:34.682Z,24.10
2018-10-17T04:38:03.196Z,25.37
2018-10-17T04:40:31.681Z,26.65
2018-10-17T04:44:24.420Z,24.70
2018-10-17T04:46:53.263Z,23.57
2018-10-17T04:49:21.941Z,25.68
2018-10-17T04:51:50.463Z,24.55
2018-10-17T04:54:19.309Z,25.97
2018-10-17T04:56:47.889Z,23.95
2018-10-17T04:59:16.487Z,25.27
2018-10-17T05:01:45.202Z,24.05
2018-10-17T05:04:13.725Z,24.23
2018-10-17T05:06:42.334Z,24.52
2018-10-17T05:09:11.348Z,26.35
2018-10-17T05:11:40.581Z,26.00
2018-10-17T05:14:09.444Z,25.95
2018-10-17T05:16:37.989Z,25.85
2018-10-17T05:19:06.528Z,25.97
2018-10-17T05:21:35.632Z,26.10
2018-10-17T05:24:04.617Z,27.05
2018-10-17T05:26:33.191Z,24.80
2018-10-17T05:29:01.791Z,25.48
2018-10-17T05:31:32.466Z,24.85
2018-10-17T05:34:01.075Z,27.58
2018-10-17T05:36:29.927Z,26.20
2018-10-17T05:38:58.837Z,26.37
2018-10-17T05:41:27.762Z,24.55
2018-10-17T05:43:56.328Z,25.12
2018-10-17T05:46:24.952Z,25.40
2018-10-17T05:48:53.501Z,24.50
2018-10-17T05:51:22.125Z,26.25
2018-10-17T05:53:50.652Z,25.20
2018-10-17T05:56:19.506Z,32.67
2018-10-17T05:58:48.045Z,27.10
2018-10-17T06:01:17.003Z,27.25
2018-10-17T06:03:45.601Z,25.30
2018-10-17T06:06:14.101Z,26.35
2018-10-17T06:08:43.142Z,30.45
2018-10-17T06:11:12.073Z,28.25
2018-10-17T06:13:41.021Z,26.42
2018-10-17T06:16:10.320Z,26.65
2018-10-17T06:18:38.871Z,26.75
2018-10-17T06:21:07.387Z,26.87
2018-10-17T06:23:36.036Z,24.98
2018-10-17T06:26:04.730Z,28.17
2018-10-17T06:28:33.606Z,27.35
2018-10-17T06:31:02.603Z,27.05
2018-10-17T06:33:31.881Z,27.93
2018-10-17T06:36:01.008Z,26.50
2018-10-17T06:38:29.533Z,26.50
2018-10-17T06:40:58.504Z,28.00
2018-10-17T06:43:27.330Z,29.00
2018-10-17T06:45:56.743Z,27.90
2018-10-17T06:48:25.565Z,27.32
2018-10-17T06:50:54.081Z,26.60
2018-10-17T06:53:23.523Z,28.23
2018-10-17T06:55:52.084Z,28.12
2018-10-17T06:58:20.944Z,25.65
2018-10-17T07:00:50.361Z,28.00
2018-10-17T07:03:19.265Z,27.13
2018-10-17T07:05:47.811Z,27.65
2018-10-17T07:08:16.692Z,26.65
2018-10-17T07:10:45.362Z,28.50
2018-10-17T07:20:13.036Z,25.62
2018-10-17T07:22:41.560Z,26.27
2018-10-17T07:25:10.465Z,26.00
2018-10-17T07:27:39.191Z,26.02
2018-10-17T07:30:08.772Z,24.98
2018-10-17T07:34:02.149Z,26.37
2018-10-17T07:36:30.995Z,24.25
2018-10-17T07:38:59.837Z,25.00
2018-10-17T07:41:28.354Z,28.05
2018-10-17T07:43:57.236Z,28.87
2018-10-17T07:46:26.376Z,26.45
2018-10-17T07:48:54.960Z,27.30
2018-10-17T07:51:23.468Z,26.10
2018-10-17T07:53:52.656Z,25.68
2018-10-17T07:56:25.608Z,23.95
2018-10-17T07:58:55.121Z,24.02
2018-10-17T08:01:25.013Z,24.50
2018-10-17T08:03:53.957Z,23.80
2018-10-17T08:06:22.570Z,24.40
2018-10-17T08:08:51.638Z,23.73
2018-10-17T08:11:20.848Z,22.07
2018-10-17T08:13:49.832Z,23.77
2018-10-17T08:16:19.168Z,22.80
2018-10-17T08:18:47.775Z,22.75
2018-10-17T08:21:17.004Z,23.02
2018-10-17T08:23:45.659Z,22.27
2018-10-17T08:26:14.497Z,22.05
2018-10-17T08:28:43.679Z,22.37
2018-10-17T08:31:12.192Z,21.10
2018-10-17T08:33:40.747Z,21.80
2018-10-17T08:36:09.319Z,21.60
2018-10-17T08:38:38.659Z,22.52
2018-10-17T08:41:07.262Z,20.95
2018-10-17T08:46:19.590Z,19.73
2018-10-17T08:48:49.558Z,19.90
2018-10-17T08:51:18.068Z,21.50
2018-10-17T08:53:46.624Z,20.68
2018-10-17T08:56:16.217Z,20.00
2018-10-17T08:58:44.606Z,20.83
2018-10-17T09:01:13.321Z,18.75
2018-10-17T09:03:42.421Z,19.35
2018-10-17T09:06:11.930Z,18.23
2018-10-17T09:08:41.326Z,19.07
2018-10-17T09:11:11.357Z,16.70
2018-10-17T09:13:40.265Z,20.17
2018-10-17T09:16:09.182Z,17.30
2018-10-17T09:18:39.024Z,18.98
2018-10-17T09:21:08.820Z,18.20
2018-10-17T09:23:37.156Z,18.87
2018-10-17T09:26:06.410Z,19.52
2018-10-17T09:28:34.916Z,18.37
2018-10-17T09:31:03.817Z,17.65
2018-10-17T09:33:33.042Z,19.23
2018-10-17T09:36:01.935Z,19.10
2018-10-17T09:38:30.661Z,17.35
2018-10-17T09:40:59.529Z,17.85
2018-10-17T09:43:28.070Z,18.00
2018-10-17T09:45:57.208Z,17.45
2018-10-17T09:48:25.897Z,17.57
2018-10-17T09:50:54.440Z,16.80
2018-10-17T09:53:23.022Z,16.25
2018-10-17T09:55:53.245Z,17.15
2018-10-17T09:58:22.101Z,15.63
2018-10-17T10:00:56.197Z,17.85
2018-10-17T10:03:24.749Z,16.82
2018-10-17T10:05:53.699Z,17.63
2018-10-17T10:08:22.850Z,17.05
2018-10-17T10:10:51.711Z,17.00
2018-10-17T10:13:20.630Z,16.00
2018-10-17T10:15:49.148Z,16.82
2018-10-17T10:18:18.371Z,16.77
2018-10-17T10:20:47.226Z,16.27
2018-10-17T10:23:16.160Z,16.75
2018-10-17T10:25:44.805Z,16.67
2018-10-17T10:28:13.713Z,16.52
2018-10-17T10:30:42.997Z,17.05
2018-10-17T10:33:11.879Z,15.85
2018-10-17T10:35:41.374Z,16.40
2018-10-17T10:38:10.266Z,17.77
2018-10-17T10:40:39.167Z,15.75
2018-10-17T10:43:08.195Z,16.10
2018-10-17T10:45:36.806Z,16.37
2018-10-17T10:48:06.319Z,15.95
2018-10-17T10:50:34.697Z,15.80
2018-10-17T10:53:03.939Z,15.43
2018-10-17T10:55:32.772Z,15.03
2018-10-17T10:58:02.025Z,15.05
2018-10-17T11:00:31.043Z,15.80
2018-10-17T11:02:59.618Z,15.78
2018-10-17T11:05:28.772Z,16.80
2018-10-17T11:07:57.773Z,15.20
2018-10-17T11:10:26.880Z,15.45
2018-10-17T11:12:55.769Z,16.62
2018-10-17T11:15:24.615Z,16.40
2018-10-17T11:17:53.873Z,16.35
2018-10-17T11:20:22.737Z,15.35
2018-10-17T11:23:08.302Z,16.50
2018-10-17T11:25:37.821Z,16.27
2018-10-17T11:28:08.578Z,17.75
2018-10-17T11:30:37.101Z,16.23
2018-10-17T11:33:06.391Z,15.60
2018-10-17T11:35:35.437Z,17.95
2018-10-17T11:38:04.362Z,16.45
2018-10-17T11:40:33.469Z,17.95
2018-10-17T11:43:02.253Z,16.20
2018-10-17T11:45:30.815Z,15.58
2018-10-17T11:47:59.704Z,17.25
2018-10-17T11:50:28.311Z,17.35
2018-10-17T11:52:57.188Z,16.40
2018-10-17T11:55:25.824Z,15.60
2018-10-17T11:57:54.350Z,16.50
2018-10-17T12:00:23.204Z,17.25
2018-10-17T12:02:51.811Z,14.75
2018-10-17T12:05:20.987Z,15.40
2018-10-17T12:07:50.161Z,15.75
2018-10-17T12:10:19.035Z,16.40
2018-10-17T12:12:47.879Z,15.98
2018-10-17T12:15:16.835Z,15.72
2018-10-17T12:17:47.640Z,17.00
2018-10-17T12:20:16.489Z,15.08
2018-10-17T12:22:46.292Z,17.35
2018-10-17T12:25:15.620Z,17.90
2018-10-17T12:27:44.531Z,17.12
2018-10-17T12:30:14.607Z,17.15
2018-10-17T12:32:43.577Z,16.30
2018-10-17T12:35:12.900Z,15.65
2018-10-17T12:37:42.025Z,15.95
2018-10-17T12:40:12.275Z,15.32
2018-10-17T12:42:41.814Z,15.40
2018-10-17T12:45:10.706Z,16.05
2018-10-17T12:47:39.775Z,14.90
2018-10-17T12:50:09.219Z,16.75
2018-10-17T12:52:38.848Z,16.20
2018-10-17T12:55:07.774Z,15.23
2018-10-17T12:57:36.298Z,16.25
2018-10-17T13:00:05.716Z,17.05
2018-10-17T13:02:34.498Z,16.50
2018-10-17T13:05:03.419Z,15.20
2018-10-17T13:07:32.433Z,16.73
2018-10-17T13:10:01.058Z,16.17
2018-10-17T13:12:29.887Z,15.60
2018-10-17T13:14:58.521Z,15.83
2018-10-17T13:17:27.492Z,15.75
2018-10-17T13:19:56.493Z,14.68
2018-10-17T13:22:25.336Z,15.23
2018-10-17T13:24:53.932Z,17.30
2018-10-17T13:27:22.643Z,14.30
2018-10-17T13:29:51.903Z,16.52
2018-10-17T13:32:20.780Z,15.15
2018-10-17T13:34:49.695Z,15.95
2018-10-17T13:37:18.356Z,14.93
2018-10-17T13:39:47.044Z,15.10
2018-10-17T13:42:16.789Z,15.95
2018-10-17T13:44:45.692Z,15.20
2018-10-17T13:47:14.582Z,15.18
2018-10-17T13:49:47.201Z,15.98
2018-10-17T13:52:16.177Z,16.60
2018-10-17T13:54:44.765Z,15.80
2018-10-17T13:57:13.567Z,15.83
2018-10-17T13:59:42.191Z,16.67
2018-10-17T14:02:11.240Z,15.15
2018-10-17T14:04:39.787Z,15.23
2018-10-17T14:07:08.355Z,16.48
2018-10-17T14:09:37.437Z,15.80
2018-10-17T14:12:07.070Z,15.45
2018-10-17T14:14:35.726Z,16.20
2018-10-17T14:17:04.353Z,15.13
2018-10-17T14:19:33.239Z,14.75
2018-10-17T14:22:02.088Z,15.70
2018-10-17T14:24:30.678Z,16.02
2018-10-17T14:26:59.267Z,15.13
2018-10-17T14:29:28.373Z,16.62
2018-10-17T14:31:57.386Z,16.12
2018-10-17T14:34:26.453Z,15.80
2018-10-17T14:36:55.661Z,17.10
2018-10-17T14:39:24.317Z,16.00
2018-10-17T14:41:53.281Z,14.37
2018-10-17T14:44:21.996Z,15.18
2018-10-17T14:46:51.143Z,14.93
2018-10-17T14:49:20.393Z,14.87
2018-10-17T14:51:48.919Z,16.75
2018-10-17T14:54:17.769Z,17.17
2018-10-17T14:56:46.323Z,15.23
2018-10-17T14:59:14.738Z,14.58
2018-10-17T15:01:44.378Z,15.60
2018-10-17T15:04:15.657Z,14.78
2018-10-17T15:06:44.233Z,14.95
2018-10-17T15:09:12.771Z,14.85
2018-10-17T15:11:41.568Z,16.27
2018-10-17T15:14:09.997Z,15.70
2018-10-17T15:16:38.461Z,16.30
2018-10-17T15:19:07.117Z,14.35
2018-10-17T15:21:35.969Z,15.32
2018-10-17T15:24:04.628Z,15.10
2018-10-17T15:26:33.101Z,14.83
2018-10-17T15:29:01.440Z,15.13
2018-10-17T15:31:30.227Z,14.80
2018-10-17T15:33:59.029Z,14.30
2018-10-17T15:36:27.684Z,15.50
2018-10-17T15:38:56.249Z,15.40
2018-10-17T15:41:24.914Z,16.17
2018-10-17T15:43:53.912Z,16.50
2018-10-17T15:46:22.950Z,17.00
2018-10-17T15:48:51.474Z,15.80
2018-10-17T15:51:20.344Z,17.32
2018-10-17T15:55:13.350Z,17.73
2018-10-17T15:57:42.189Z,15.10
2018-10-17T16:00:11.463Z,15.90
2018-10-17T16:02:40.636Z,16.45
2018-10-17T16:05:10.791Z,15.68
2018-10-17T16:07:39.682Z,16.75
2018-10-17T16:10:09.261Z,16.15
2018-10-17T16:12:38.759Z,15.95
2018-10-17T16:15:08.781Z,16.50
2018-10-17T16:17:37.296Z,16.17
2018-10-17T16:20:07.717Z,17.73
2018-10-17T16:22:36.494Z,17.02
2018-10-17T16:25:05.941Z,16.80
2018-10-17T16:27:34.789Z,16.55
2018-10-17T16:30:03.820Z,18.62
2018-10-17T16:32:33.193Z,16.75
2018-10-17T16:35:02.080Z,17.55
2018-10-17T16:37:30.690Z,18.48
2018-10-17T16:39:58.988Z,19.85
2018-10-17T16:42:28.201Z,18.02
2018-10-17T16:44:56.977Z,17.32
2018-10-17T16:47:25.569Z,18.27
2018-10-17T16:49:54.549Z,19.30
2018-10-17T16:52:23.482Z,20.15
2018-10-17T16:54:53.811Z,17.27
2018-10-17T16:57:22.329Z,17.62
2018-10-17T16:59:50.912Z,17.62
2018-10-17T17:02:20.566Z,18.57
2018-10-17T17:04:49.661Z,17.92
2018-10-17T17:07:18.197Z,18.02
2018-10-17T17:09:48.456Z,18.07
2018-10-17T17:12:17.464Z,18.37
2018-10-17T17:14:46.732Z,16.55
2018-10-17T17:17:16.428Z,17.35
2018-10-17T17:19:46.157Z,17.55
2018-10-17T17:22:15.154Z,18.20
2018-10-17T17:24:43.881Z,18.00
2018-10-17T17:27:14.186Z,18.23
2018-10-17T17:29:44.210Z,18.82
2018-10-17T17:32:17.619Z,20.30
2018-10-17T17:34:47.538Z,19.95
2018-10-17T17:37:17.419Z,19.90
2018-10-17T17:39:47.468Z,19.17
2018-10-17T17:42:23.915Z,20.77
2018-10-17T17:44:53.681Z,20.48
2018-10-17T17:47:23.341Z,20.40
2018-10-17T17:49:52.258Z,21.07
2018-10-17T17:52:22.246Z,19.40
2018-10-17T17:54:50.841Z,21.07
2018-10-17T17:57:19.524Z,21.17
2018-10-17T17:59:48.961Z,21.70
2018-10-17T18:02:17.813Z,20.80
2018-10-17T18:04:47.290Z,20.02
2018-10-17T18:07:16.204Z,20.50
2018-10-17T18:09:45.072Z,20.85
2018-10-17T18:12:13.953Z,22.87
2018-10-17T18:14:46.194Z,21.40
2018-10-17T18:17:14.777Z,20.88
2018-10-17T18:19:43.448Z,21.20
2018-10-17T18:22:14.313Z,21.65
2018-10-17T18:24:43.061Z,23.45
2018-10-17T18:27:11.948Z,22.17
2018-10-17T18:29:40.861Z,23.62
2018-10-17T18:32:10.069Z,23.52
2018-10-17T18:34:38.769Z,22.40
2018-10-17T18:37:10.370Z,23.83
2018-10-17T18:39:39.206Z,25.37
2018-10-17T18:42:07.826Z,24.40
2018-10-17T18:44:36.501Z,24.77
2018-10-17T18:47:05.575Z,24.05
2018-10-17T18:49:34.382Z,24.55
2018-10-17T18:52:03.899Z,24.67
2018-10-17T18:54:33.564Z,24.72
2018-10-17T18:57:02.574Z,24.45
2018-10-17T18:59:32.085Z,25.20
2018-10-17T19:02:13.086Z,25.90
2018-10-17T19:04:48.257Z,24.90
2018-10-17T19:07:20.305Z,25.72
2018-10-17T19:09:49.835Z,25.70
2018-10-17T19:12:20.994Z,25.30
2018-10-17T19:14:51.358Z,24.12
2018-10-17T19:17:32.075Z,24.92
2018-10-17T19:20:01.423Z,25.20
2018-10-17T19:22:30.515Z,24.65
2018-10-17T19:25:00.759Z,25.72
2018-10-17T19:27:30.162Z,26.50
2018-10-17T19:29:58.755Z,26.77
2018-10-17T19:32:27.740Z,27.40
2018-10-17T19:34:56.604Z,26.80
2018-10-17T19:37:25.131Z,27.90
2018-10-17T19:39:53.743Z,29.52
2018-10-17T19:42:22.657Z,26.85
2018-10-17T19:44:56.836Z,28.90
2018-10-17T19:47:26.179Z,27.58
2018-10-17T19:49:54.757Z,26.90
2018-10-17T19:52:23.412Z,29.70
2018-10-17T19:54:52.886Z,29.25
2018-10-17T19:57:21.468Z,29.75
2018-10-17T19:59:50.166Z,30.72
2018-10-17T20:02:19.784Z,31.07
2018-10-17T20:04:50.448Z,30.25
2018-10-17T20:07:19.348Z,31.20
2018-10-17T20:09:48.569Z,30.52
2018-10-17T20:13:43.309Z,28.90
2018-10-17T20:16:12.305Z,29.23
2018-10-17T20:18:42.425Z,29.80
2018-10-17T20:21:16.526Z,30.02
2018-10-17T20:23:45.644Z,30.25
2018-10-17T20:26:15.408Z,30.02
2018-10-17T20:28:45.211Z,31.48
2018-10-17T20:31:14.121Z,32.73
2018-10-17T20:33:42.698Z,30.77
2018-10-17T20:36:11.613Z,31.75
2018-10-17T20:38:40.534Z,30.23
2018-10-17T20:41:09.564Z,31.10
2018-10-17T20:43:38.741Z,32.15
2018-10-17T20:46:07.230Z,33.58
2018-10-17T20:48:35.753Z,32.25
2018-10-17T20:51:04.985Z,30.37
2018-10-17T20:53:33.917Z,29.35
2018-10-17T20:56:03.224Z,32.28
2018-10-17T20:58:32.685Z,31.30
2018-10-17T21:01:01.285Z,33.73
2018-10-17T21:03:29.929Z,31.82
2018-10-17T21:05:59.154Z,31.70
2018-10-17T21:08:28.062Z,31.48
2018-10-17T21:10:56.824Z,32.30
2018-10-17T21:13:25.388Z,31.55
2018-10-17T21:15:53.731Z,31.70
2018-10-17T21:18:22.761Z,32.93
2018-10-17T21:20:51.962Z,31.10
2018-10-17T21:23:20.741Z,33.23
2018-10-17T21:25:49.368Z,33.23
2018-10-17T21:28:18.233Z,32.10
2018-10-17T21:30:46.733Z,32.30
2018-10-17T21:33:15.236Z,33.50
2018-10-17T21:35:49.291Z,33.70
2018-10-17T21:38:18.182Z,33.90
2018-10-17T21:40:47.217Z,33.35
2018-10-17T21:43:16.409Z,32.17
2018-10-17T21:45:44.951Z,33.63
2018-10-17T21:48:13.837Z,34.15
2018-10-17T21:50:42.920Z,33.42
2018-10-17T21:53:11.444Z,31.80
2018-10-17T21:55:39.961Z,33.45
2018-10-17T21:58:08.877Z,33.00
2018-10-17T22:00:37.410Z,31.75
2018-10-17T22:03:05.958Z,32.35
2018-10-17T22:05:34.501Z,32.20
2018-10-17T22:08:03.088Z,34.85
2018-10-17T22:10:32.265Z,32.20
2018-10-17T22:13:01.132Z,34.18
2018-10-17T22:15:32.413Z,33.20
2018-10-17T22:18:06.043Z,33.35
2018-10-17T22:20:34.660Z,33.38
2018-10-17T22:23:03.814Z,33.48
2018-10-17T22:25:32.644Z,32.48
2018-10-17T22:28:01.491Z,33.02
2018-10-17T22:30:30.334Z,33.28
2018-10-17T22:32:58.895Z,33.40
2018-10-17T22:35:28.065Z,32.67
2018-10-17T22:37:56.579Z,33.40
2018-10-17T22:40:25.453Z,32.60
2018-10-17T22:42:54.376Z,34.40
2018-10-17T22:45:23.470Z,32.88
2018-10-17T22:47:51.973Z,34.95
2018-10-17T22:50:20.488Z,33.20
2018-10-17T22:52:49.400Z,34.00
2018-10-17T22:55:17.904Z,32.93
2018-10-17T22:57:46.614Z,32.28
2018-10-17T23:00:15.130Z,34.08
2018-10-17T23:02:43.620Z,32.33
2018-10-17T23:05:12.465Z,33.02
2018-10-17T23:07:41.307Z,33.55
2018-10-17T23:10:09.830Z,33.75
2018-10-17T23:12:39.001Z,32.85
2018-10-17T23:15:11.098Z,31.75
2018-10-17T23:17:39.635Z,34.65
2018-10-17T23:20:08.261Z,32.65
2018-10-17T23:22:37.451Z,33.25
2018-10-17T23:25:07.108Z,33.13
2018-10-17T23:27:36.028Z,33.80
2018-10-17T23:30:05.238Z,30.85
2018-10-17T23:32:33.764Z,34.90
2018-10-17T23:35:02.629Z,34.63
2018-10-17T23:37:31.219Z,34.35
2018-10-17T23:39:59.747Z,33.45
2018-10-17T23:42:28.928Z,32.08
2018-10-17T23:44:57.772Z,32.95
2018-10-17T23:47:26.283Z,33.38
2018-10-17T23:49:55.160Z,34.15
2018-10-17T23:52:23.809Z,32.55
2018-10-17T23:54:52.674Z,34.27
2018-10-17T23:57:21.578Z,32.33
2018-10-17T23:59:50.426Z,33.35
